Time;durP1;ratioP1;P1;durP2;ratioP2;P2;SDS_P1;SDS_P2;PMS_P1;PMS_P2;Temp;Humidity;BMP_temperature;BMP_pressure;BME280_temperature;BME280_humidity;BME280_pressure;Samples;Min_cycle;Max_cycle;Signal;HPM_P1;HPM_P2
2020/12/22 00:01:13;;;;;;;26.40;19.48;;;;;;;5.85;72.98;100553.72;5047755;28;20116;-71
2020/12/22 00:03:39;;;;;;;26.27;18.77;;;;;;;5.80;73.18;100550.16;5047268;28;20115;-72
2020/12/22 00:06:04;;;;;;;25.52;17.80;;;;;;;5.66;73.43;100543.00;5040228;28;20036;-72
2020/12/22 00:08:30;;;;;;;24.95;17.52;;;;;;;5.65;73.44;100537.72;5042035;28;20039;-72
2020/12/22 00:10:55;;;;;;;25.17;17.77;;;;;;;5.70;72.81;100536.91;5042385;28;20057;-72
2020/12/22 00:13:20;;;;;;;25.27;18.23;;;;;;;5.77;73.55;100544.88;5041895;28;20091;-71
2020/12/22 00:15:46;;;;;;;24.98;16.73;;;;;;;5.75;73.16;100534.38;5043298;28;20025;-72
2020/12/22 00:18:12;;;;;;;26.73;18.50;;;;;;;5.78;73.25;100534.41;5060125;28;20630;-71
2020/12/22 00:20:37;;;;;;;28.15;18.05;;;;;;;5.89;72.99;100524.06;5040419;28;20136;-72
2020/12/22 00:23:03;;;;;;;25.77;17.63;;;;;;;5.90;72.65;100516.25;5043558;28;20089;-72
2020/12/22 00:25:28;;;;;;;24.38;17.63;;;;;;;5.97;72.98;100503.25;5041786;28;20033;-72
2020/12/22 00:27:54;;;;;;;23.35;15.88;;;;;;;6.03;72.47;100506.81;5040251;28;20048;-72
2020/12/22 00:30:19;;;;;;;23.88;17.05;;;;;;;6.06;72.70;100503.38;5040890;28;20025;-72
2020/12/22 00:32:44;;;;;;;22.45;15.55;;;;;;;6.17;71.98;100500.88;5043425;28;20442;-72
2020/12/22 00:35:10;;;;;;;23.35;17.05;;;;;;;6.22;72.00;100496.56;5025958;28;20044;-72
2020/12/22 00:37:35;;;;;;;24.63;17.05;;;;;;;6.30;72.47;100494.91;5022292;28;20025;-72
2020/12/22 00:40:00;;;;;;;23.30;16.90;;;;;;;6.28;72.21;100488.75;5040041;28;20614;-72
2020/12/22 00:42:30;;;;;;;23.77;16.38;;;;;;;6.32;72.31;100493.19;5052036;28;20605;-72
2020/12/22 00:44:56;;;;;;;24.40;16.00;;;;;;;6.30;71.91;100485.28;5039664;28;20033;-72
2020/12/22 00:47:22;;;;;;;20.85;15.80;;;;;;;6.36;72.31;100489.69;5042492;28;20094;-72
2020/12/22 00:49:48;;;;;;;20.13;15.02;;;;;;;6.39;72.17;100489.72;5039939;28;20515;-72
2020/12/22 00:52:13;;;;;;;20.45;14.85;;;;;;;6.42;71.87;100484.53;5034914;28;20128;-71
2020/12/22 00:54:38;;;;;;;22.25;15.65;;;;;;;6.45;72.30;100479.31;5038551;28;20025;-72
2020/12/22 00:57:04;;;;;;;22.42;16.33;;;;;;;6.48;71.78;100479.34;5039644;28;20061;-72
2020/12/22 00:59:53;;;;;;;20.85;15.05;;;;;;;6.49;71.62;100478.47;5021819;28;20037;-72
2020/12/22 01:02:18;;;;;;;22.40;15.55;;;;;;;6.48;71.91;100471.47;5040058;28;20029;-71
2020/12/22 01:04:43;;;;;;;21.40;14.88;;;;;;;6.51;71.72;100470.63;5043179;28;20553;-72
2020/12/22 01:07:09;;;;;;;19.80;14.35;;;;;;;6.47;72.18;100467.13;5043146;28;20029;-72
2020/12/22 01:09:34;;;;;;;21.80;15.40;;;;;;;6.53;71.72;100459.28;5040199;28;20493;-71
2020/12/22 01:11:59;;;;;;;21.27;14.45;;;;;;;6.56;71.72;100459.31;5039647;28;20132;-72
2020/12/22 01:14:25;;;;;;;21.55;15.25;;;;;;;6.56;71.67;100454.06;5040701;28;20064;-72
2020/12/22 01:16:53;;;;;;;21.02;15.23;;;;;;;6.57;71.08;100449.69;5043062;28;20025;-72
2020/12/22 01:19:18;;;;;;;21.95;16.27;;;;;;;6.57;71.53;100442.72;5042401;28;20369;-72
2020/12/22 01:21:44;;;;;;;19.58;14.32;;;;;;;6.58;71.66;100441.88;5039481;28;20086;-72
2020/12/22 01:24:09;;;;;;;19.27;14.07;;;;;;;6.60;71.79;100449.72;5017363;28;20112;-72
2020/12/22 01:26:34;;;;;;;19.85;14.60;;;;;;;6.57;71.74;100449.69;5039375;28;20072;-72
2020/12/22 01:29:00;;;;;;;21.35;15.23;;;;;;;6.56;71.65;100443.59;5039404;28;20033;-71
2020/12/22 01:31:28;;;;;;;20.20;15.75;;;;;;;6.54;71.20;100442.69;5021899;28;20029;-71
2020/12/22 01:33:54;;;;;;;20.52;15.57;;;;;;;6.59;71.09;100435.75;5036117;28;20552;-72
2020/12/22 01:36:20;;;;;;;20.25;15.32;;;;;;;6.58;71.34;100436.63;5042188;28;20496;-72
2020/12/22 01:38:46;;;;;;;21.40;14.73;;;;;;;6.57;71.66;100424.34;5039197;28;20045;-72
2020/12/22 01:41:11;;;;;;;19.85;14.60;;;;;;;6.57;71.48;100416.50;5039337;28;20037;-72
2020/12/22 01:43:37;;;;;;;20.42;14.90;;;;;;;6.59;71.98;100412.13;5021024;28;20033;-72
2020/12/22 01:46:04;;;;;;;22.35;15.25;;;;;;;6.67;71.68;100398.22;5039305;28;20037;-71
2020/12/22 01:48:29;;;;;;;19.63;15.32;;;;;;;6.66;71.97;100392.09;5022777;28;20404;-72
2020/12/22 01:50:54;;;;;;;21.40;15.60;;;;;;;6.59;71.79;100395.53;5043316;28;20029;-72
2020/12/22 01:53:20;;;;;;;21.13;15.07;;;;;;;6.56;72.29;100396.38;5043588;28;20045;-72
2020/12/22 01:55:45;;;;;;;18.70;13.45;;;;;;;6.62;72.16;100392.94;5046687;28;20040;-72
2020/12/22 01:58:11;;;;;;;20.30;14.80;;;;;;;6.50;72.55;100392.84;5046658;28;20095;-72
2020/12/22 02:00:36;;;;;;;19.33;14.73;;;;;;;6.58;72.60;100384.19;5025686;28;20052;-72
2020/12/22 02:03:04;;;;;;;19.75;13.98;;;;;;;6.68;72.49;100389.47;5042866;28;20042;-72
2020/12/22 02:05:32;;;;;;;18.55;13.88;;;;;;;6.70;72.48;100385.13;5045114;28;20469;-72
2020/12/22 02:07:57;;;;;;;18.52;13.13;;;;;;;6.74;72.94;100389.53;5046364;28;20128;-72
2020/12/22 02:10:22;;;;;;;18.70;13.48;;;;;;;6.62;73.01;100379.81;5045191;28;20037;-72
2020/12/22 02:12:48;;;;;;;18.75;13.65;;;;;;;6.75;73.07;100386.03;5042629;28;20033;-72
2020/12/22 02:15:13;;;;;;;19.17;13.63;;;;;;;6.74;73.07;100389.53;5038112;28;20052;-72
2020/12/22 02:17:39;;;;;;;18.15;13.68;;;;;;;6.72;73.51;100386.03;5042778;28;20048;-72
2020/12/22 02:20:05;;;;;;;20.20;13.25;;;;;;;6.79;73.84;100387.84;5042634;28;20037;-72
2020/12/22 02:22:33;;;;;;;20.00;14.00;;;;;;;6.70;74.21;100390.38;5044635;28;20034;-72
2020/12/22 02:24:58;;;;;;;20.35;13.15;;;;;;;6.76;74.10;100387.81;5046039;28;20040;-72
2020/12/22 02:27:23;;;;;;;19.20;14.00;;;;;;;6.76;74.37;100379.94;5044792;28;20033;-72
2020/12/22 02:29:49;;;;;;;17.95;13.10;;;;;;;6.74;74.02;100374.69;5042564;28;20160;-72
2020/12/22 02:32:14;;;;;;;23.33;15.68;;;;;;;6.72;73.93;100370.28;5042295;28;20033;-72
2020/12/22 02:34:39;;;;;;;18.25;14.13;;;;;;;6.66;74.81;100362.38;5041081;28;20033;-72
2020/12/22 02:37:05;;;;;;;19.48;13.93;;;;;;;6.66;74.68;100362.38;5029416;28;20099;-72
2020/12/22 02:39:30;;;;;;;18.52;14.15;;;;;;;6.67;74.60;100361.50;5044384;28;20047;-72
2020/12/22 02:41:55;;;;;;;20.23;14.40;;;;;;;6.70;74.78;100362.38;5045821;28;20083;-72
2020/12/22 02:44:21;;;;;;;19.58;14.05;;;;;;;6.68;75.48;100356.28;5044619;28;20052;-72
2020/12/22 02:46:46;;;;;;;23.92;15.60;;;;;;;6.69;75.53;100357.16;5034075;28;20044;-72
2020/12/22 02:49:11;;;;;;;17.90;13.48;;;;;;;6.69;75.30;100344.91;5041787;28;20029;-72
2020/12/22 02:51:37;;;;;;;19.67;14.23;;;;;;;6.62;76.20;100337.88;5042582;28;20503;-72
2020/12/22 02:54:02;;;;;;;19.95;14.57;;;;;;;6.64;75.80;100330.88;5035522;28;20397;-72
2020/12/22 02:56:30;;;;;;;18.40;13.73;;;;;;;6.62;76.40;100327.38;5042178;28;20555;-72
2020/12/22 02:58:55;;;;;;;19.80;14.27;;;;;;;6.62;76.49;100316.88;5041393;28;20056;-72
2020/12/22 03:01:21;;;;;;;21.45;14.27;;;;;;;6.68;76.14;100316.03;5042594;28;20045;-72
2020/12/22 03:03:46;;;;;;;21.02;15.23;;;;;;;6.67;76.16;100315.16;5045115;28;20068;-72
2020/12/22 03:06:11;;;;;;;22.38;15.88;;;;;;;6.62;75.91;100305.53;5045324;28;20067;-72
2020/12/22 03:08:37;;;;;;;21.00;14.93;;;;;;;6.57;76.00;100305.47;5042259;28;20029;-71
2020/12/22 03:11:03;;;;;;;21.15;15.30;;;;;;;6.53;76.53;100299.34;5035486;28;20048;-72
2020/12/22 03:13:28;;;;;;;20.33;14.10;;;;;;;6.53;76.17;100296.75;5041483;28;20036;-72
2020/12/22 03:15:54;;;;;;;18.88;14.52;;;;;;;6.52;76.24;100300.25;5041729;28;20423;-72
2020/12/22 03:18:19;;;;;;;18.17;14.32;;;;;;;6.50;76.46;100288.84;5042226;28;20041;-72
2020/12/22 03:20:45;;;;;;;19.17;14.30;;;;;;;6.44;76.83;100291.41;5045028;28;20032;-73
2020/12/22 03:23:11;;;;;;;20.15;14.80;;;;;;;6.40;76.67;100289.66;5027102;28;20035;-71
2020/12/22 03:25:36;;;;;;;18.77;13.48;;;;;;;6.44;76.69;100288.78;5042154;28;20072;-72
2020/12/22 03:28:01;;;;;;;18.58;13.63;;;;;;;6.54;76.32;100281.88;5041444;28;20420;-72
2020/12/22 03:30:27;;;;;;;19.13;13.85;;;;;;;6.56;76.38;100283.63;5042993;28;20160;-72
2020/12/22 03:32:52;;;;;;;17.80;13.00;;;;;;;6.64;76.06;100280.19;5044531;28;20040;-72
2020/12/22 03:35:17;;;;;;;20.75;14.50;;;;;;;6.61;76.46;100261.81;5026596;28;20037;-72
2020/12/22 03:37:43;;;;;;;20.23;14.77;;;;;;;6.60;77.10;100260.91;5043381;28;20029;-72
2020/12/22 03:40:09;;;;;;;17.65;12.73;;;;;;;6.57;76.66;100250.41;5045620;28;20087;-71
2020/12/22 03:42:35;;;;;;;18.92;13.25;;;;;;;6.59;76.89;100260.06;5043737;28;20460;-72
2020/12/22 03:45:01;;;;;;;17.45;12.13;;;;;;;6.52;77.25;100263.53;5044559;28;20442;-72
2020/12/22 03:47:27;;;;;;;18.35;13.00;;;;;;;6.49;77.70;100253.00;5043101;28;20040;-72
2020/12/22 03:49:52;;;;;;;19.75;14.07;;;;;;;6.40;77.80;100246.84;5041011;28;20041;-72
2020/12/22 03:52:17;;;;;;;19.83;13.80;;;;;;;6.44;78.23;100259.97;5041043;28;20045;-71
2020/12/22 03:54:43;;;;;;;17.30;12.77;;;;;;;6.42;78.21;100250.31;5044717;28;20091;-72
2020/12/22 03:57:08;;;;;;;17.05;12.65;;;;;;;6.53;77.84;100256.53;5044564;28;20060;-73
2020/12/22 03:59:34;;;;;;;17.88;12.48;;;;;;;6.58;77.73;100258.31;5041561;28;20041;-72
2020/12/22 04:02:00;;;;;;;16.17;12.40;;;;;;;6.57;78.11;100245.19;5039856;28;20037;-72
2020/12/22 04:04:25;;;;;;;18.02;12.18;;;;;;;6.57;78.19;100239.94;5051479;28;20048;-72
2020/12/22 04:06:51;;;;;;;17.95;13.13;;;;;;;6.61;78.51;100230.38;5047392;28;20471;-72
2020/12/22 04:09:17;;;;;;;16.13;12.20;;;;;;;6.65;78.32;100232.13;5040908;28;20033;-72
2020/12/22 04:11:43;;;;;;;16.58;11.75;;;;;;;6.64;78.81;100219.88;5025407;28;20036;-72
2020/12/22 04:14:09;;;;;;;18.13;12.20;;;;;;;6.59;78.79;100210.22;5043813;28;20044;-72
2020/12/22 04:16:36;;;;;;;15.55;10.60;;;;;;;6.59;79.57;100218.09;5041196;28;20502;-72
2020/12/22 04:19:01;;;;;;;15.38;11.55;;;;;;;6.66;79.13;100212.91;5040510;28;20034;-72
2020/12/22 04:21:28;;;;;;;15.32;11.43;;;;;;;6.74;79.15;100211.19;5042013;28;20041;-72
2020/12/22 04:23:54;;;;;;;14.82;11.38;;;;;;;6.78;78.98;100212.94;5043530;28;20051;-72
2020/12/22 04:26:21;;;;;;;16.45;11.32;;;;;;;6.73;79.28;100210.31;5025393;28;20037;-73
2020/12/22 04:28:47;;;;;;;15.27;11.50;;;;;;;6.75;79.16;100226.91;5040313;28;20112;-72
2020/12/22 04:31:12;;;;;;;16.33;11.45;;;;;;;6.65;80.12;100221.63;5040134;28;20522;-72
2020/12/22 04:33:38;;;;;;;15.50;11.65;;;;;;;6.63;80.08;100215.47;5042906;28;20064;-71
2020/12/22 04:36:04;;;;;;;16.02;11.52;;;;;;;6.68;79.95;100219.91;5043644;28;20036;-72
2020/12/22 04:38:30;;;;;;;14.50;10.57;;;;;;;6.68;80.05;100214.66;5041598;28;20115;-72
2020/12/22 04:40:58;;;;;;;17.17;11.95;;;;;;;6.72;80.22;100221.66;5016380;28;20044;-72
2020/12/22 04:43:23;;;;;;;14.48;10.00;;;;;;;6.78;79.61;100212.94;5039758;28;20037;-72
2020/12/22 04:45:50;;;;;;;15.65;11.15;;;;;;;6.75;80.42;100216.41;5039860;28;20029;-72
2020/12/22 04:48:19;;;;;;;13.50;9.75;;;;;;;6.82;80.48;100206.84;5040048;28;20037;-72
2020/12/22 04:50:47;;;;;;;13.52;10.48;;;;;;;6.88;79.91;100213.84;5025598;28;20082;-72
2020/12/22 04:53:12;;;;;;;12.93;9.77;;;;;;;6.94;79.79;100206.91;5043139;28;20435;-72
2020/12/22 04:55:38;;;;;;;15.95;10.82;;;;;;;6.97;80.52;100199.03;5022421;28;20021;-72
2020/12/22 04:58:05;;;;;;;14.60;9.70;;;;;;;6.95;80.90;100192.91;5039913;28;20826;-72
2020/12/22 05:00:31;;;;;;;14.30;9.60;;;;;;;6.89;80.60;100195.50;5047025;28;20083;-72
2020/12/22 05:02:58;;;;;;;10.60;7.90;;;;;;;6.90;80.82;100191.13;5051035;28;20028;-72
2020/12/22 05:05:23;;;;;;;14.18;9.40;;;;;;;6.94;80.76;100178.03;5041795;28;20051;-72
2020/12/22 05:07:49;;;;;;;12.48;8.68;;;;;;;7.02;80.43;100167.53;5039621;28;20034;-72
2020/12/22 05:10:14;;;;;;;12.20;8.65;;;;;;;7.05;80.60;100164.94;5022006;28;20037;-72
2020/12/22 05:12:41;;;;;;;13.18;9.55;;;;;;;7.12;80.17;100165.81;5042674;28;20037;-72
2020/12/22 05:15:08;;;;;;;10.77;8.20;;;;;;;7.14;80.30;100167.56;5042980;28;20075;-72
2020/12/22 05:17:41;;;;;;;12.02;8.77;;;;;;;7.06;81.04;100171.06;5022583;28;20048;-71
2020/12/22 05:20:09;;;;;;;11.45;8.52;;;;;;;7.07;80.56;100162.31;5039374;28;20439;-72
2020/12/22 05:22:36;;;;;;;11.55;7.70;;;;;;;7.13;80.28;100152.72;5024013;28;20484;-72
2020/12/22 05:25:02;;;;;;;10.45;7.68;;;;;;;7.13;80.96;100146.59;5042891;28;20040;-71
2020/12/22 05:27:29;;;;;;;11.98;8.07;;;;;;;7.17;80.37;100143.94;5023290;28;20123;-72
2020/12/22 05:29:59;;;;;;;10.55;7.25;;;;;;;7.22;80.85;100147.47;5039452;28;20029;-72
2020/12/22 05:32:26;;;;;;;10.38;6.65;;;;;;;7.23;81.08;100133.50;5040320;28;20079;-72
2020/12/22 05:34:51;;;;;;;9.85;7.18;;;;;;;7.19;81.51;100134.34;5049356;28;20098;-72
2020/12/22 05:37:17;;;;;;;9.73;6.68;;;;;;;7.20;80.98;100133.50;5024801;28;20075;-72
2020/12/22 05:39:44;;;;;;;10.98;7.45;;;;;;;7.20;81.73;100129.97;5039200;28;20607;-72
2020/12/22 05:42:14;;;;;;;11.63;7.18;;;;;;;7.28;80.97;100136.09;5039196;28;20546;-72
2020/12/22 05:45:06;;;;;;;9.43;6.90;;;;;;;7.22;81.77;100125.59;5042523;28;20480;-72
2020/12/22 05:47:31;;;;;;;11.23;6.57;;;;;;;7.31;81.33;100115.13;5037692;28;20090;-72
2020/12/22 05:49:58;;;;;;;7.78;5.55;;;;;;;7.32;81.22;100106.34;5039173;28;20025;-72
2020/12/22 05:52:26;;;;;;;8.70;5.30;;;;;;;7.36;81.06;100101.97;5040203;28;20531;-72
2020/12/22 05:54:53;;;;;;;7.95;5.38;;;;;;;7.32;81.14;100106.34;5042637;28;20041;-72
2020/12/22 05:57:26;;;;;;;8.23;5.60;;;;;;;7.37;81.57;100109.84;5042059;28;20033;-72
2020/12/22 05:59:52;;;;;;;9.07;5.35;;;;;;;7.39;81.43;100102.00;5039022;28;20113;-72
2020/12/22 06:02:31;;;;;;;6.65;4.88;;;;;;;7.44;81.47;100103.75;5039296;28;20064;-72
2020/12/22 06:04:58;;;;;;;7.18;5.00;;;;;;;7.49;81.50;100092.34;5043826;28;20499;-72
2020/12/22 06:07:25;;;;;;;6.68;4.50;;;;;;;7.54;81.16;100095.84;5047779;28;20045;-73
2020/12/22 06:09:51;;;;;;;8.50;5.00;;;;;;;7.50;81.29;100088.88;5042435;28;20029;-73
2020/12/22 06:12:19;;;;;;;6.28;4.20;;;;;;;7.58;81.04;100081.84;5024527;28;20043;-73
2020/12/22 06:14:48;;;;;;;7.28;4.70;;;;;;;7.66;81.12;100090.59;5038968;28;20095;-73
2020/12/22 06:17:14;;;;;;;5.72;3.63;;;;;;;7.74;80.79;100080.94;5039073;28;20091;-73
2020/12/22 06:19:42;;;;;;;7.13;5.45;;;;;;;7.63;81.52;100086.22;5037208;28;20136;-72
2020/12/22 06:22:13;;;;;;;7.38;3.78;;;;;;;7.73;81.27;100091.44;5038830;28;20041;-73
2020/12/22 06:24:39;;;;;;;8.60;3.80;;;;;;;7.79;81.20;100087.06;5040259;28;20068;-73
2020/12/22 06:27:09;;;;;;;9.32;4.80;;;;;;;7.83;81.66;100085.28;5048249;28;20036;-73
2020/12/22 06:29:36;;;;;;;5.75;3.58;;;;;;;7.89;81.08;100087.91;5046237;28;20048;-73
2020/12/22 06:32:33;;;;;;;6.55;3.90;;;;;;;7.91;81.40;100086.13;5056363;28;20638;-72
2020/12/22 06:35:28;;;;;;;7.25;3.85;;;;;;;7.92;80.82;100081.78;5018532;28;20056;-73
2020/12/22 06:37:54;;;;;;;6.45;3.67;;;;;;;7.97;80.98;100074.78;5042484;28;20494;-73
2020/12/22 06:40:40;;;;;;;5.75;3.53;;;;;;;7.97;81.35;100080.03;5042848;28;20408;-72
2020/12/22 06:43:05;;;;;;;6.95;3.70;;;;;;;8.01;81.22;100073.88;5045345;28;20470;-73
2020/12/22 06:45:36;;;;;;;4.88;3.00;;;;;;;8.09;81.40;100078.19;5043645;28;20064;-73
2020/12/22 06:48:01;;;;;;;4.97;3.30;;;;;;;8.17;81.23;100074.69;5042340;28;20029;-73
2020/12/22 06:50:43;;;;;;;4.78;3.13;;;;;;;8.16;80.86;100071.19;5044090;28;20472;-72
2020/12/22 06:53:35;;;;;;;5.43;3.80;;;;;;;8.10;81.65;100071.22;5045508;28;20043;-75
2020/12/22 06:56:01;;;;;;;6.60;3.38;;;;;;;8.16;81.29;100068.56;5042329;28;20045;-72
2020/12/22 06:58:37;;;;;;;5.47;3.38;;;;;;;8.22;81.12;100076.41;5043609;28;20079;-73
2020/12/22 07:01:24;;;;;;;5.22;3.08;;;;;;;8.28;81.27;100058.00;5045389;28;20044;-73
2020/12/22 07:03:54;;;;;;;5.18;3.28;;;;;;;8.33;81.05;100064.13;5041779;28;20108;-74
2020/12/22 07:06:42;;;;;;;5.28;2.60;;;;;;;8.34;81.43;100075.50;5024763;28;20380;-74
2020/12/22 07:09:16;;;;;;;5.80;2.90;;;;;;;8.43;81.24;100064.09;5045315;28;20037;-73
2020/12/22 07:11:42;;;;;;;5.85;3.42;;;;;;;8.48;80.76;100064.94;5024233;28;20049;-74
2020/12/22 07:14:07;;;;;;;4.22;2.70;;;;;;;8.50;80.60;100077.19;5041471;28;20427;-73
2020/12/22 07:16:55;;;;;;;4.70;2.85;;;;;;;8.55;80.15;100071.94;5044029;28;20072;-74
2020/12/22 07:19:28;;;;;;;5.35;3.17;;;;;;;8.62;80.11;100065.75;5044365;28;20060;-73
2020/12/22 07:22:07;;;;;;;5.15;2.67;;;;;;;8.67;80.15;100076.22;5041708;28;20160;-74
2020/12/22 07:24:34;;;;;;;5.38;2.50;;;;;;;8.76;80.32;100076.19;5043872;28;20026;-74
2020/12/22 07:27:03;;;;;;;6.03;2.58;;;;;;;8.81;80.35;100070.91;5010777;28;20037;-74
2020/12/22 07:29:28;;;;;;;4.25;2.45;;;;;;;8.88;79.92;100069.97;5025442;28;20037;-74
2020/12/22 07:31:54;;;;;;;3.55;1.63;;;;;;;8.92;79.71;100083.09;5044907;28;20028;-74
2020/12/22 07:34:20;;;;;;;5.38;3.13;;;;;;;8.93;79.63;100076.97;5044034;28;20407;-74
2020/12/22 07:36:47;;;;;;;6.18;3.10;;;;;;;9.00;79.86;100062.00;5045869;28;20495;-73
2020/12/22 07:39:16;;;;;;;5.18;3.20;;;;;;;9.04;79.97;100074.25;5058344;28;20036;-74
2020/12/22 07:41:43;;;;;;;4.93;2.28;;;;;;;8.99;79.26;100078.69;5053153;28;20040;-74
2020/12/22 07:44:29;;;;;;;5.07;2.20;;;;;;;8.97;80.36;100062.03;5053400;28;20029;-73
2020/12/22 07:46:54;;;;;;;4.82;2.72;;;;;;;9.05;80.21;100072.50;5049899;28;20542;-74
2020/12/22 07:49:19;;;;;;;5.60;2.58;;;;;;;9.04;80.25;100071.63;5042060;28;20060;-73
2020/12/22 07:51:48;;;;;;;4.63;2.50;;;;;;;9.03;80.34;100066.38;5042645;28;20032;-74
2020/12/22 07:54:14;;;;;;;3.67;2.28;;;;;;;9.09;79.87;100055.78;5042340;28;20081;-74
2020/12/22 07:56:41;;;;;;;2.92;1.75;;;;;;;9.13;80.17;100057.50;5039268;28;20369;-74
2020/12/22 07:59:16;;;;;;;4.45;2.05;;;;;;;9.17;80.10;100068.03;5039156;28;20078;-73
2020/12/22 08:01:41;;;;;;;3.92;1.50;;;;;;;9.19;80.80;100070.63;5026542;28;20127;-74
2020/12/22 08:04:13;;;;;;;3.03;1.60;;;;;;;9.25;80.64;100067.06;5044064;28;20130;-74
2020/12/22 08:06:39;;;;;;;4.72;1.98;;;;;;;9.37;80.73;100070.47;5041058;28;20040;-73
2020/12/22 08:09:06;;;;;;;4.43;1.98;;;;;;;9.50;80.26;100073.00;5040671;28;20068;-74
2020/12/22 08:11:31;;;;;;;3.28;1.33;;;;;;;9.56;80.47;100067.66;5042778;28;20415;-73
2020/12/22 08:13:57;;;;;;;2.85;0.60;;;;;;;9.82;80.20;100065.66;5043708;28;20043;-74
2020/12/22 08:16:24;;;;;;;1.05;0.40;;;;;;;10.02;79.70;100065.44;5043039;28;20037;-73
2020/12/22 08:18:50;;;;;;;0.85;0.38;;;;;;;10.18;79.28;100065.25;5040473;28;20033;-74
2020/12/22 08:21:19;;;;;;;1.73;0.52;;;;;;;10.31;79.27;100061.63;5040591;28;20477;-74
2020/12/22 08:23:45;;;;;;;1.08;0.30;;;;;;;10.38;78.73;100058.00;5040268;28;20112;-74
2020/12/22 08:26:10;;;;;;;1.10;0.20;;;;;;;10.45;78.77;100057.06;5040503;28;20040;-74
2020/12/22 08:28:36;;;;;;;0.10;0.10;;;;;;;10.50;78.71;100054.31;5021975;28;20132;-74
2020/12/22 08:31:14;;;;;;;0.82;0.35;;;;;;;10.45;78.04;100061.44;5040287;28;20037;-73
2020/12/22 08:33:41;;;;;;;0.57;0.30;;;;;;;10.53;78.18;100059.56;5043302;28;20061;-74
2020/12/22 08:36:11;;;;;;;0.30;0.13;;;;;;;10.60;78.30;100061.22;5043773;28;20087;-74
2020/12/22 08:38:36;;;;;;;0.85;0.20;;;;;;;10.72;77.36;100060.19;5023120;28;20041;-74
2020/12/22 08:41:14;;;;;;;0.68;0.22;;;;;;;10.89;77.25;100062.56;5022473;28;20112;-74
2020/12/22 08:43:50;;;;;;;0.38;0.10;;;;;;;11.05;76.31;100077.28;5043059;28;20041;-74
2020/12/22 08:46:16;;;;;;;0.63;0.20;;;;;;;11.08;76.35;100057.88;5043598;28;20499;-73
2020/12/22 08:48:42;;;;;;;0.47;0.20;;;;;;;11.17;76.25;100061.25;5040092;28;20084;-74
2020/12/22 08:51:08;;;;;;;0.90;0.20;;;;;;;11.24;75.52;100064.69;5017959;28;20037;-74
2020/12/22 08:53:35;;;;;;;1.35;0.28;;;;;;;11.34;75.85;100065.38;5038105;28;20029;-74
2020/12/22 08:56:10;;;;;;;0.60;0.22;;;;;;;11.37;75.43;100066.22;5039977;28;20078;-74
2020/12/22 08:58:52;;;;;;;0.70;0.30;;;;;;;11.40;75.37;100071.44;5041844;28;20048;-74
2020/12/22 09:01:22;;;;;;;0.70;0.32;;;;;;;11.47;75.56;100076.63;5043003;28;20036;-74
2020/12/22 09:03:56;;;;;;;0.63;0.25;;;;;;;11.61;74.87;100071.97;5039639;28;20033;-74
2020/12/22 09:06:43;;;;;;;0.32;0.20;;;;;;;11.62;74.65;100081.66;5040725;28;20045;-75
2020/12/22 09:09:16;;;;;;;0.10;0.10;;;;;;;11.74;73.83;100065.56;5043180;28;20037;-73
2020/12/22 09:11:42;;;;;;;0.75;0.30;;;;;;;11.76;73.98;100070.81;5039781;28;20069;-74
2020/12/22 09:14:12;;;;;;;0.70;0.10;;;;;;;11.82;73.79;100068.09;5039356;28;20029;-74
2020/12/22 09:16:55;;;;;;;0.70;0.20;;;;;;;11.94;73.45;100073.16;5042661;28;20037;-74
2020/12/22 09:19:20;;;;;;;;;;;;;;;11.96;73.29;100059.91;5042838;28;20127;-72
2020/12/22 09:21:46;;;;;;;0.95;0.40;;;;;;;11.98;73.68;100064.25;5039542;28;19956;-73
2020/12/22 09:24:17;;;;;;;0.32;0.20;;;;;;;11.89;73.76;100063.56;5027247;28;20446;-74
2020/12/22 09:27:05;;;;;;;1.88;0.28;;;;;;;11.81;74.10;100072.47;5039649;28;20610;-74
2020/12/22 09:29:31;;;;;;;1.08;0.40;;;;;;;11.75;74.14;100059.38;5041358;28;20029;-74
2020/12/22 09:31:58;;;;;;;0.70;0.30;;;;;;;11.71;74.65;100063.00;5042896;28;20067;-73
2020/12/22 09:34:26;;;;;;;2.75;1.00;;;;;;;11.70;74.48;100063.88;5041450;28;20033;-73
2020/12/22 09:36:53;;;;;;;0.65;0.38;;;;;;;11.77;73.76;100064.66;5031417;28;20120;-73
2020/12/22 09:39:19;;;;;;;0.25;0.15;;;;;;;11.81;73.56;100077.75;5039264;28;20073;-73
2020/12/22 09:41:44;;;;;;;1.38;0.50;;;;;;;11.85;74.21;100066.25;5021670;28;20071;-73
2020/12/22 09:44:10;;;;;;;1.50;0.30;;;;;;;11.87;74.27;100057.44;5038874;28;20044;-73
2020/12/22 09:46:36;;;;;;;0.98;0.38;;;;;;;11.84;73.97;100047.75;5041966;28;20069;-73
2020/12/22 09:49:01;;;;;;;0.20;0.10;;;;;;;11.83;74.08;100056.59;5042816;28;20025;-73
2020/12/22 09:51:27;;;;;;;0.63;0.22;;;;;;;11.87;73.96;100070.66;5023364;28;20033;-74
2020/12/22 09:53:52;;;;;;;0.70;0.30;;;;;;;11.95;74.09;100047.59;5038969;28;20107;-73
2020/12/22 09:56:18;;;;;;;0.77;0.30;;;;;;;11.94;73.84;100059.06;5039525;28;20038;-73
2020/12/22 09:58:43;;;;;;;0.90;0.30;;;;;;;12.01;73.99;100063.34;5042488;28;20449;-73
2020/12/22 10:01:08;;;;;;;0.40;0.17;;;;;;;12.08;73.50;100054.38;5042499;28;20479;-73
2020/12/22 10:03:34;;;;;;;0.60;0.20;;;;;;;12.09;73.62;100061.41;5039851;28;20087;-73
2020/12/22 10:05:59;;;;;;;1.65;0.30;;;;;;;12.23;73.74;100066.41;5039436;28;20026;-73
2020/12/22 10:08:24;;;;;;;1.13;0.35;;;;;;;12.42;73.01;100069.56;5040244;28;20484;-73
2020/12/22 10:10:49;;;;;;;1.00;0.38;;;;;;;12.60;72.39;100069.19;5045388;28;20056;-73
2020/12/22 10:13:15;;;;;;;0.85;0.30;;;;;;;12.71;71.45;100064.50;5046067;28;20403;-73
2020/12/22 10:15:40;;;;;;;1.50;0.90;;;;;;;12.76;71.76;100059.13;5043046;28;20021;-72
2020/12/22 10:18:09;;;;;;;20.75;9.60;;;;;;;12.81;71.60;100070.47;5042880;28;20025;-73
2020/12/22 10:20:37;;;;;;;66.07;26.38;;;;;;;12.95;71.17;100059.56;5045187;28;20053;-73
2020/12/22 10:23:03;;;;;;;52.38;24.88;;;;;;;13.03;70.92;100067.34;5045821;28;20029;-73
2020/12/22 10:25:29;;;;;;;7.40;4.57;;;;;;;13.12;71.03;100062.66;5044400;28;20392;-73
2020/12/22 10:27:54;;;;;;;27.65;14.30;;;;;;;13.22;70.36;100062.44;5042746;28;20037;-72
2020/12/22 10:30:20;;;;;;;23.88;11.10;;;;;;;13.28;70.14;100062.31;5043257;28;20087;-73
2020/12/22 10:32:45;;;;;;;7.22;4.78;;;;;;;13.31;70.26;100067.56;5045817;28;20064;-73
2020/12/22 10:35:11;;;;;;;3.35;2.35;;;;;;;13.49;69.87;100069.75;5045995;28;20052;-72
2020/12/22 10:37:36;;;;;;;2.90;1.30;;;;;;;13.66;69.33;100069.31;5043191;28;20041;-73
2020/12/22 10:40:02;;;;;;;3.33;0.40;;;;;;;13.76;69.21;100069.94;5042276;28;20037;-72
2020/12/22 10:42:28;;;;;;;0.93;0.30;;;;;;;13.97;68.53;100072.03;5022570;28;20033;-73
2020/12/22 10:44:53;;;;;;;2.50;1.10;;;;;;;13.91;68.78;100066.88;5042373;28;20415;-73
2020/12/22 10:47:18;;;;;;;2.28;1.02;;;;;;;13.91;68.44;100073.94;5042686;28;20488;-74
2020/12/22 10:49:44;;;;;;;2.83;0.90;;;;;;;13.87;69.37;100067.88;5045772;28;20475;-73
2020/12/22 10:52:09;;;;;;;2.35;0.90;;;;;;;13.91;68.86;100064.25;5027686;28;20179;-73
2020/12/22 10:54:34;;;;;;;3.33;1.23;;;;;;;13.97;68.70;100060.53;5043037;28;20036;-73
2020/12/22 10:57:00;;;;;;;3.28;1.70;;;;;;;13.98;68.69;100071.09;5042205;28;20483;-73
2020/12/22 10:59:25;;;;;;;1.55;0.70;;;;;;;14.02;68.96;100075.41;5022129;28;20139;-73
2020/12/22 11:01:51;;;;;;;1.38;0.50;;;;;;;14.01;68.24;100073.66;5042151;28;20038;-73
2020/12/22 11:04:17;;;;;;;0.55;0.30;;;;;;;13.91;68.88;100077.50;5041789;28;20034;-73
2020/12/22 11:06:56;;;;;;;2.45;0.98;;;;;;;13.91;68.65;100074.84;5027757;28;20032;-73
2020/12/22 11:09:23;;;;;;;1.55;0.75;;;;;;;13.96;68.75;100078.25;5044608;28;20116;-73
2020/12/22 11:11:48;;;;;;;2.22;0.95;;;;;;;13.90;69.00;100072.22;5033556;28;20043;-74
2020/12/22 11:14:14;;;;;;;1.40;0.40;;;;;;;13.90;69.63;100066.91;5037472;28;20029;-72
2020/12/22 11:16:39;;;;;;;0.75;0.30;;;;;;;13.93;69.56;100083.59;5044969;28;20044;-73
2020/12/22 11:19:05;;;;;;;1.58;0.63;;;;;;;13.83;70.56;100076.81;5045136;28;20041;-73
2020/12/22 11:21:31;;;;;;;0.95;0.47;;;;;;;13.76;70.82;100076.13;5024747;28;20036;-73
2020/12/22 11:23:56;;;;;;;0.85;0.55;;;;;;;13.72;71.11;100090.34;5017581;28;20037;-72
2020/12/22 11:26:23;;;;;;;1.08;0.60;;;;;;;13.77;70.63;100088.47;5041618;28;20032;-74